Holliday, Texas
Current Conditions -  °F | °C
As of 9:15 PM on Monday 20 Oct 2014 (Local Time) from KCWC Reporting Station
Clear Clear  
Wind Chill: 70°   Ceiling: Unl
Heat Index: 70°   Visibility: 10mi
Dew Point: 58°   Wind: 7mph
Humidity: 66%   Direction: 150°SSE
Pressure: 30.04"   Gusts: NA
Location:  33.82°N, 98.7°W
Report Text: KCWC 210215Z AUTO 15006KT 10SM CLR 21/14 A3004 RMK AO2 T02090143
Loading
Personal Weather Stations






























Interactive Weather Map
Tropical Storm Tracking
New forecast layout! Learn more

10-Day Weather Forecast

Advertisements
Track Severe Weather on mobile